Maki Maru — JD4061 — position and weather

sailwx.info

Track history (hours):
 
Tides and Currents Weather Stations Pressure Air Temp Water Temp Dewpoint Dewpoint Depression Visibility Wind Speed Wind Dir Waves Ship Positions

Maki Maru

Last reported at 2017-Nov-23 04:50 UTC. Time now 2017-Nov-23 05:16 UTC.
Position N 35°37' E 139°59'.

Length 74 m; draft 4.9 m.

Type: Cargo ship. MMSI: 431008166.

Date/timePositionNaut miles runAvg speedWind from/ knotsBaromVisibWave heightAir tempDewpointWater temp
2017-Nov-23 04:50N 35°37' E 139°59'411.5
2017-Nov-23 04:31N 35°34' E 139°56'611.4
2017-Nov-23 04:01N 35°29' E 139°52'611.3
2017-Nov-23 03:31N 35°25' E 139°47'611.1
2017-Nov-23 03:00N 35°20' E 139°44'510.4
2017-Nov-23 02:31N 35°15' E 139°47'510.9
2017-Nov-23 02:00N 35°10' E 139°46'611.3
2017-Nov-23 01:30N 35°04' E 139°45'510.6
2017-Nov-23 00:59N 34°59' E 139°44'  
2017-Nov-16 10:59N 34°55' E 140°01'10 9.6
2017-Nov-16 09:55N 34°53' E 139°49'510.4
2017-Nov-16 09:25N 34°57' E 139°45'410.6
2017-Nov-16 09:00N 35°01' E 139°44'510.9
2017-Nov-16 08:30N 35°06' E 139°45'611.3
2017-Nov-16 08:00N 35°12' E 139°46'611.5
2017-Nov-16 07:30N 35°18' E 139°44'611.2
2017-Nov-16 07:01N 35°23' E 139°42'611.3
2017-Nov-16 06:31N 35°27' E 139°47'16 2.2
2017-Nov-15 22:54N 35°40' E 139°60'5 0.4
2017-Nov-15 09:08N 35°35' E 139°57'312.6
2017-Nov-15 08:56N 35°33' E 139°56'512.1
2017-Nov-15 08:31N 35°29' E 139°51'612.2
2017-Nov-15 08:01N 35°24' E 139°46'611.8
2017-Nov-15 07:31N 35°19' E 139°44'611.1
2017-Nov-15 07:00N 35°13' E 139°47'612.2
2017-Nov-15 06:30N 35°07' E 139°46'612.7
2017-Nov-15 06:00N 35°01' E 139°44'  
Track history (hours):
 
Tides and Currents Weather Stations Pressure Air Temp Water Temp Dewpoint Dewpoint Depression Visibility Wind Speed Wind Dir Waves Ship Positions

Maki Maru

Last reported at 2017-Nov-23 04:50 UTC. Time now 2017-Nov-23 05:16 UTC.
Position N 35°37' E 139°59'.

Length 74 m; draft 4.9 m.

Type: Cargo ship. MMSI: 431008166.

Date/timePositionNaut miles runAvg speedWind from/ knotsBaromVisibWave heightAir tempDewpointWater temp
2017-Nov-23 04:50N 35°37' E 139°59'411.5
2017-Nov-23 04:31N 35°34' E 139°56'611.4
2017-Nov-23 04:01N 35°29' E 139°52'611.3
2017-Nov-23 03:31N 35°25' E 139°47'611.1
2017-Nov-23 03:00N 35°20' E 139°44'510.4
2017-Nov-23 02:31N 35°15' E 139°47'510.9
2017-Nov-23 02:00N 35°10' E 139°46'611.3
2017-Nov-23 01:30N 35°04' E 139°45'510.6
2017-Nov-23 00:59N 34°59' E 139°44'  
2017-Nov-16 10:59N 34°55' E 140°01'10 9.6
2017-Nov-16 09:55N 34°53' E 139°49'510.4
2017-Nov-16 09:25N 34°57' E 139°45'410.6
2017-Nov-16 09:00N 35°01' E 139°44'510.9
2017-Nov-16 08:30N 35°06' E 139°45'611.3
2017-Nov-16 08:00N 35°12' E 139°46'611.5
2017-Nov-16 07:30N 35°18' E 139°44'611.2
2017-Nov-16 07:01N 35°23' E 139°42'611.3
2017-Nov-16 06:31N 35°27' E 139°47'16 2.2
2017-Nov-15 22:54N 35°40' E 139°60'5 0.4
2017-Nov-15 09:08N 35°35' E 139°57'312.6
2017-Nov-15 08:56N 35°33' E 139°56'512.1
2017-Nov-15 08:31N 35°29' E 139°51'612.2
2017-Nov-15 08:01N 35°24' E 139°46'611.8
2017-Nov-15 07:31N 35°19' E 139°44'611.1
2017-Nov-15 07:00N 35°13' E 139°47'612.2
2017-Nov-15 06:30N 35°07' E 139°46'612.7
2017-Nov-15 06:00N 35°01' E 139°44'  

Dump ship's entire track history